Etusivu
METAR-TAF:

METAR-TAF

Lentoasemat :

Pago Pago, Yhdysvaltain pienet erillissaaret

Leveyspiiri: 14-20S, Pituuspiiri: 170-43W, korkeus merenpinnasta: 3 m

Tämänhetkinen sää

Tämä raportti tehtiin 58 minuuttia sitten, kello 17.52 UTC
Tuuli 10 kn idästä/kaakosta
Lämpötila 26°C
Kosteus 89%
Ilmanpaine 1012 hPa
Näkyvyys: 19.3 km
Muutamia pilviä 2300 ft:n korkeudessa
Muutamia pilviä 10000 ft:n korkeudessa

METAR: NSTU 231752Z 12010KT 12SM FEW023 FEW100 26/24 A2989 RMK SLP124 60002 8/170 T02580239 10264 20257 52014

Aika: 07:50 (18:50 UTC)

Sääennuste

Tämä raportti tehtiin 1 tunti ja 12 minuuttia sitten, kello 17.38 UTC
Ennuste voimassa 23. päivästä klo 18 UTC - 24. päivään klo 18 UTC
Tuuli 11 kn idästä
Näkyvyys: 10 km
Hajanaisia pilviä 2000 ft:n korkeudessa
Hajanaisia pilviä 4000 ft:n korkeudessa
Hajanaisia pilviä 10000 ft:n korkeudessa

TAF: NSTU 231738Z 2318/2418 10011KT P6SM SCT020 SCT040 SCT100

Säähavainnot ja -ennusteet yli 4000 lentoasemalta (METAR- ja TAF-raportit).

Käytössä olevat sääasemat on merkitty karttaan keltaisilla ja punaisilla pisteillä.

Aseta hiiri pisteen päälle nähdäksesi sääaseman nimen.

Klikkaa sitten nähdäksesi säähavainnot ja -ennusteet.

Kartan vaihtaminen: klikkaa mustalla rastilla varustettuja vihreitä pisteitä, niin voit zoomata sisään; viivalla varustettua vihreää pistettä, niin voit zoomata ulos tai vihreitä nuolia, niin pääset viereisille kartoille.


METAR-TAF: